sensor_id;sensor_type;location;lat;lon;timestamp;P1;durP1;ratioP1;P2;durP2;ratioP2
53010;SDS011;42803;55.762;38.084;2023-02-12T00:02:17;19.50;;;8.73;;
53010;SDS011;42803;55.762;38.084;2023-02-12T00:04:46;19.70;;;9.07;;
53010;SDS011;42803;55.762;38.084;2023-02-12T00:07:15;18.60;;;9.45;;
53010;SDS011;42803;55.762;38.084;2023-02-12T00:09:44;18.88;;;8.98;;
53010;SDS011;42803;55.762;38.084;2023-02-12T00:12:14;20.45;;;9.40;;
53010;SDS011;42803;55.762;38.084;2023-02-12T00:14:43;20.33;;;9.95;;
53010;SDS011;42803;55.762;38.084;2023-02-12T00:17:12;20.85;;;9.23;;
53010;SDS011;42803;55.762;38.084;2023-02-12T00:19:42;20.73;;;10.55;;
53010;SDS011;42803;55.762;38.084;2023-02-12T00:22:11;19.63;;;9.73;;
53010;SDS011;42803;55.762;38.084;2023-02-12T00:24:40;25.55;;;10.63;;
53010;SDS011;42803;55.762;38.084;2023-02-12T00:27:09;18.83;;;9.70;;
53010;SDS011;42803;55.762;38.084;2023-02-12T00:29:38;16.75;;;8.75;;
53010;SDS011;42803;55.762;38.084;2023-02-12T00:32:07;17.88;;;9.05;;
53010;SDS011;42803;55.762;38.084;2023-02-12T00:34:37;15.27;;;7.45;;
53010;SDS011;42803;55.762;38.084;2023-02-12T00:37:07;17.40;;;8.05;;
53010;SDS011;42803;55.762;38.084;2023-02-12T00:39:36;10.65;;;5.75;;
53010;SDS011;42803;55.762;38.084;2023-02-12T00:42:05;12.40;;;6.07;;
53010;SDS011;42803;55.762;38.084;2023-02-12T00:44:35;14.07;;;5.78;;
53010;SDS011;42803;55.762;38.084;2023-02-12T00:47:04;7.13;;;4.43;;
53010;SDS011;42803;55.762;38.084;2023-02-12T00:49:33;7.03;;;4.55;;
53010;SDS011;42803;55.762;38.084;2023-02-12T00:52:02;8.13;;;4.18;;
53010;SDS011;42803;55.762;38.084;2023-02-12T00:54:33;7.03;;;3.63;;
53010;SDS011;42803;55.762;38.084;2023-02-12T00:57:03;8.25;;;3.70;;
53010;SDS011;42803;55.762;38.084;2023-02-12T00:59:31;5.65;;;2.97;;
53010;SDS011;42803;55.762;38.084;2023-02-12T01:02:02;6.53;;;3.13;;
53010;SDS011;42803;55.762;38.084;2023-02-12T01:04:31;6.13;;;3.65;;
53010;SDS011;42803;55.762;38.084;2023-02-12T01:07:00;5.32;;;2.60;;
53010;SDS011;42803;55.762;38.084;2023-02-12T01:09:29;6.35;;;2.80;;
53010;SDS011;42803;55.762;38.084;2023-02-12T01:12:01;4.00;;;2.35;;
53010;SDS011;42803;55.762;38.084;2023-02-12T01:14:30;7.15;;;3.78;;
53010;SDS011;42803;55.762;38.084;2023-02-12T01:16:59;6.50;;;2.90;;
53010;SDS011;42803;55.762;38.084;2023-02-12T01:19:28;4.88;;;2.35;;
53010;SDS011;42803;55.762;38.084;2023-02-12T01:21:57;5.53;;;3.75;;
53010;SDS011;42803;55.762;38.084;2023-02-12T01:24:26;3.92;;;2.38;;
53010;SDS011;42803;55.762;38.084;2023-02-12T01:26:57;4.45;;;2.85;;
53010;SDS011;42803;55.762;38.084;2023-02-12T01:29:29;5.38;;;3.20;;
53010;SDS011;42803;55.762;38.084;2023-02-12T01:32:00;5.05;;;2.90;;
53010;SDS011;42803;55.762;38.084;2023-02-12T01:34:29;6.97;;;3.78;;
53010;SDS011;42803;55.762;38.084;2023-02-12T01:36:58;7.13;;;3.33;;
53010;SDS011;42803;55.762;38.084;2023-02-12T01:39:27;6.72;;;3.72;;
53010;SDS011;42803;55.762;38.084;2023-02-12T01:41:57;5.40;;;3.15;;
53010;SDS011;42803;55.762;38.084;2023-02-12T01:44:28;6.97;;;3.38;;
53010;SDS011;42803;55.762;38.084;2023-02-12T01:46:59;7.00;;;4.22;;
53010;SDS011;42803;55.762;38.084;2023-02-12T01:49:30;7.97;;;4.18;;
53010;SDS011;42803;55.762;38.084;2023-02-12T01:52:03;6.35;;;3.47;;
53010;SDS011;42803;55.762;38.084;2023-02-12T01:54:35;5.05;;;2.70;;
53010;SDS011;42803;55.762;38.084;2023-02-12T01:57:05;6.78;;;4.03;;
53010;SDS011;42803;55.762;38.084;2023-02-12T01:59:38;10.23;;;3.47;;
53010;SDS011;42803;55.762;38.084;2023-02-12T02:02:10;6.95;;;4.75;;
53010;SDS011;42803;55.762;38.084;2023-02-12T02:04:40;9.93;;;3.92;;
53010;SDS011;42803;55.762;38.084;2023-02-12T02:07:13;10.23;;;3.97;;
53010;SDS011;42803;55.762;38.084;2023-02-12T02:09:43;11.73;;;5.20;;
53010;SDS011;42803;55.762;38.084;2023-02-12T02:12:12;9.45;;;5.30;;
53010;SDS011;42803;55.762;38.084;2023-02-12T02:14:59;7.30;;;5.10;;
53010;SDS011;42803;55.762;38.084;2023-02-12T02:17:34;10.38;;;5.88;;
53010;SDS011;42803;55.762;38.084;2023-02-12T02:23:21;9.25;;;4.70;;
53010;SDS011;42803;55.762;38.084;2023-02-12T02:29:29;10.25;;;4.55;;
53010;SDS011;42803;55.762;38.084;2023-02-12T02:32:15;4.70;;;2.90;;
53010;SDS011;42803;55.762;38.084;2023-02-12T02:34:51;6.15;;;3.97;;
53010;SDS011;42803;55.762;38.084;2023-02-12T02:37:30;13.57;;;3.60;;
53010;SDS011;42803;55.762;38.084;2023-02-12T02:40:06;7.50;;;3.80;;
53010;SDS011;42803;55.762;38.084;2023-02-12T02:42:40;9.52;;;4.70;;
53010;SDS011;42803;55.762;38.084;2023-02-12T02:45:15;9.25;;;5.40;;
53010;SDS011;42803;55.762;38.084;2023-02-12T02:47:52;6.00;;;2.63;;
53010;SDS011;42803;55.762;38.084;2023-02-12T02:50:26;3.22;;;2.67;;
53010;SDS011;42803;55.762;38.084;2023-02-12T02:52:59;6.13;;;3.25;;
53010;SDS011;42803;55.762;38.084;2023-02-12T02:55:34;5.15;;;2.70;;
53010;SDS011;42803;55.762;38.084;2023-02-12T02:58:08;5.07;;;2.92;;
53010;SDS011;42803;55.762;38.084;2023-02-12T03:00:41;6.15;;;3.05;;
53010;SDS011;42803;55.762;38.084;2023-02-12T03:03:16;7.88;;;3.60;;
53010;SDS011;42803;55.762;38.084;2023-02-12T03:05:53;3.78;;;2.58;;
53010;SDS011;42803;55.762;38.084;2023-02-12T03:08:27;6.25;;;3.53;;
53010;SDS011;42803;55.762;38.084;2023-02-12T03:11:02;2.53;;;2.20;;
53010;SDS011;42803;55.762;38.084;2023-02-12T03:13:36;3.40;;;2.55;;
53010;SDS011;42803;55.762;38.084;2023-02-12T03:16:10;5.00;;;2.70;;
53010;SDS011;42803;55.762;38.084;2023-02-12T03:18:48;4.40;;;2.20;;
53010;SDS011;42803;55.762;38.084;2023-02-12T03:21:23;3.92;;;2.45;;
53010;SDS011;42803;55.762;38.084;2023-02-12T03:26:28;5.28;;;1.77;;
53010;SDS011;42803;55.762;38.084;2023-02-12T03:29:05;4.90;;;2.97;;
53010;SDS011;42803;55.762;38.084;2023-02-12T03:31:36;3.55;;;2.42;;
53010;SDS011;42803;55.762;38.084;2023-02-12T03:34:16;4.53;;;3.33;;
53010;SDS011;42803;55.762;38.084;2023-02-12T03:36:52;5.25;;;2.15;;
53010;SDS011;42803;55.762;38.084;2023-02-12T03:39:27;2.80;;;1.60;;
53010;SDS011;42803;55.762;38.084;2023-02-12T03:42:00;3.08;;;2.13;;
53010;SDS011;42803;55.762;38.084;2023-02-12T03:44:36;2.47;;;2.03;;
53010;SDS011;42803;55.762;38.084;2023-02-12T03:47:16;3.00;;;2.03;;
53010;SDS011;42803;55.762;38.084;2023-02-12T03:49:56;3.00;;;1.80;;
53010;SDS011;42803;55.762;38.084;2023-02-12T03:52:30;2.03;;;1.67;;
53010;SDS011;42803;55.762;38.084;2023-02-12T03:54:59;3.70;;;1.75;;
53010;SDS011;42803;55.762;38.084;2023-02-12T03:57:29;2.83;;;1.67;;
53010;SDS011;42803;55.762;38.084;2023-02-12T04:00:03;1.77;;;1.58;;
53010;SDS011;42803;55.762;38.084;2023-02-12T04:02:40;4.63;;;1.98;;
53010;SDS011;42803;55.762;38.084;2023-02-12T04:05:16;3.22;;;1.35;;
53010;SDS011;42803;55.762;38.084;2023-02-12T04:07:47;3.80;;;1.92;;
53010;SDS011;42803;55.762;38.084;2023-02-12T04:10:17;2.35;;;1.88;;
53010;SDS011;42803;55.762;38.084;2023-02-12T04:12:53;2.75;;;1.65;;
53010;SDS011;42803;55.762;38.084;2023-02-12T04:15:29;3.42;;;1.98;;
53010;SDS011;42803;55.762;38.084;2023-02-12T04:18:14;5.30;;;1.83;;
53010;SDS011;42803;55.762;38.084;2023-02-12T04:20:52;2.47;;;1.67;;
53010;SDS011;42803;55.762;38.084;2023-02-12T04:23:40;3.33;;;2.33;;
53010;SDS011;42803;55.762;38.084;2023-02-12T04:26:17;5.15;;;2.28;;
53010;SDS011;42803;55.762;38.084;2023-02-12T04:28:55;5.97;;;2.50;;
53010;SDS011;42803;55.762;38.084;2023-02-12T04:31:32;5.60;;;3.10;;
53010;SDS011;42803;55.762;38.084;2023-02-12T04:34:08;5.72;;;3.25;;
53010;SDS011;42803;55.762;38.084;2023-02-12T04:36:44;5.32;;;3.40;;
53010;SDS011;42803;55.762;38.084;2023-02-12T04:39:19;4.93;;;2.83;;
53010;SDS011;42803;55.762;38.084;2023-02-12T04:41:51;6.53;;;2.65;;
53010;SDS011;42803;55.762;38.084;2023-02-12T04:44:21;5.70;;;2.65;;
53010;SDS011;42803;55.762;38.084;2023-02-12T04:46:57;4.13;;;2.00;;
53010;SDS011;42803;55.762;38.084;2023-02-12T04:49:26;4.00;;;2.80;;
53010;SDS011;42803;55.762;38.084;2023-02-12T04:51:56;5.97;;;3.25;;
53010;SDS011;42803;55.762;38.084;2023-02-12T04:54:25;5.93;;;3.53;;
53010;SDS011;42803;55.762;38.084;2023-02-12T04:56:55;7.03;;;3.50;;
53010;SDS011;42803;55.762;38.084;2023-02-12T04:59:25;5.38;;;2.13;;
53010;SDS011;42803;55.762;38.084;2023-02-12T05:01:54;3.45;;;2.00;;
53010;SDS011;42803;55.762;38.084;2023-02-12T05:04:23;5.38;;;3.00;;
53010;SDS011;42803;55.762;38.084;2023-02-12T05:06:52;2.58;;;2.25;;
53010;SDS011;42803;55.762;38.084;2023-02-12T05:09:22;3.60;;;2.40;;
53010;SDS011;42803;55.762;38.084;2023-02-12T05:11:51;5.20;;;3.10;;
53010;SDS011;42803;55.762;38.084;2023-02-12T05:14:22;4.93;;;2.33;;
53010;SDS011;42803;55.762;38.084;2023-02-12T05:16:51;5.95;;;2.33;;
53010;SDS011;42803;55.762;38.084;2023-02-12T05:19:20;4.93;;;2.35;;
53010;SDS011;42803;55.762;38.084;2023-02-12T05:21:49;6.10;;;2.70;;
53010;SDS011;42803;55.762;38.084;2023-02-12T05:24:18;7.88;;;2.83;;
53010;SDS011;42803;55.762;38.084;2023-02-12T05:26:49;5.28;;;2.92;;
53010;SDS011;42803;55.762;38.084;2023-02-12T05:29:18;6.13;;;3.20;;
53010;SDS011;42803;55.762;38.084;2023-02-12T05:31:48;6.82;;;2.28;;
53010;SDS011;42803;55.762;38.084;2023-02-12T05:34:17;2.50;;;2.28;;
53010;SDS011;42803;55.762;38.084;2023-02-12T05:36:46;3.67;;;2.28;;
53010;SDS011;42803;55.762;38.084;2023-02-12T05:39:15;5.47;;;3.05;;
53010;SDS011;42803;55.762;38.084;2023-02-12T05:41:44;5.40;;;1.85;;
53010;SDS011;42803;55.762;38.084;2023-02-12T05:44:15;8.35;;;4.38;;
53010;SDS011;42803;55.762;38.084;2023-02-12T05:46:44;3.42;;;2.67;;
53010;SDS011;42803;55.762;38.084;2023-02-12T05:49:13;5.88;;;3.28;;
53010;SDS011;42803;55.762;38.084;2023-02-12T05:51:42;7.93;;;3.40;;
53010;SDS011;42803;55.762;38.084;2023-02-12T05:54:11;4.38;;;3.13;;
53010;SDS011;42803;55.762;38.084;2023-02-12T05:56:42;5.03;;;2.88;;
53010;SDS011;42803;55.762;38.084;2023-02-12T05:59:13;2.22;;;1.90;;
53010;SDS011;42803;55.762;38.084;2023-02-12T06:01:45;5.03;;;2.72;;
53010;SDS011;42803;55.762;38.084;2023-02-12T06:04:17;6.68;;;3.55;;
53010;SDS011;42803;55.762;38.084;2023-02-12T06:06:50;7.35;;;3.10;;
53010;SDS011;42803;55.762;38.084;2023-02-12T06:09:20;3.22;;;1.90;;
53010;SDS011;42803;55.762;38.084;2023-02-12T06:11:50;6.45;;;2.60;;
53010;SDS011;42803;55.762;38.084;2023-02-12T06:14:20;2.72;;;1.77;;
53010;SDS011;42803;55.762;38.084;2023-02-12T06:16:50;4.90;;;2.95;;
53010;SDS011;42803;55.762;38.084;2023-02-12T06:19:19;3.20;;;2.60;;
53010;SDS011;42803;55.762;38.084;2023-02-12T06:21:48;2.78;;;2.08;;
53010;SDS011;42803;55.762;38.084;2023-02-12T06:24:17;6.55;;;1.83;;
53010;SDS011;42803;55.762;38.084;2023-02-12T06:26:48;3.95;;;1.92;;
53010;SDS011;42803;55.762;38.084;2023-02-12T06:29:18;1.83;;;1.73;;
53010;SDS011;42803;55.762;38.084;2023-02-12T06:31:48;2.25;;;1.55;;
53010;SDS011;42803;55.762;38.084;2023-02-12T06:34:18;3.35;;;1.63;;
53010;SDS011;42803;55.762;38.084;2023-02-12T06:36:47;2.40;;;2.20;;
53010;SDS011;42803;55.762;38.084;2023-02-12T06:39:16;2.45;;;1.70;;
53010;SDS011;42803;55.762;38.084;2023-02-12T06:41:45;3.47;;;1.95;;
53010;SDS011;42803;55.762;38.084;2023-02-12T06:44:14;2.22;;;0.93;;
53010;SDS011;42803;55.762;38.084;2023-02-12T06:46:43;4.43;;;1.70;;
53010;SDS011;42803;55.762;38.084;2023-02-12T06:49:14;2.67;;;1.50;;
53010;SDS011;42803;55.762;38.084;2023-02-12T06:51:43;2.25;;;1.45;;
53010;SDS011;42803;55.762;38.084;2023-02-12T06:54:13;2.33;;;1.30;;
53010;SDS011;42803;55.762;38.084;2023-02-12T06:56:43;5.82;;;1.48;;
53010;SDS011;42803;55.762;38.084;2023-02-12T06:59:13;1.98;;;1.70;;
53010;SDS011;42803;55.762;38.084;2023-02-12T07:01:44;2.63;;;1.58;;
53010;SDS011;42803;55.762;38.084;2023-02-12T07:04:14;2.03;;;1.65;;
53010;SDS011;42803;55.762;38.084;2023-02-12T07:06:43;3.85;;;2.90;;
53010;SDS011;42803;55.762;38.084;2023-02-12T07:09:12;2.70;;;1.67;;
53010;SDS011;42803;55.762;38.084;2023-02-12T07:11:41;2.47;;;1.30;;
53010;SDS011;42803;55.762;38.084;2023-02-12T07:14:12;4.15;;;1.40;;
53010;SDS011;42803;55.762;38.084;2023-02-12T07:16:42;1.73;;;1.13;;
53010;SDS011;42803;55.762;38.084;2023-02-12T07:19:12;3.88;;;1.30;;
53010;SDS011;42803;55.762;38.084;2023-02-12T07:21:44;1.98;;;1.08;;
53010;SDS011;42803;55.762;38.084;2023-02-12T07:24:13;2.85;;;1.92;;
53010;SDS011;42803;55.762;38.084;2023-02-12T07:26:44;1.20;;;1.10;;
53010;SDS011;42803;55.762;38.084;2023-02-12T07:29:13;4.45;;;1.40;;
53010;SDS011;42803;55.762;38.084;2023-02-12T07:31:43;1.83;;;1.27;;
53010;SDS011;42803;55.762;38.084;2023-02-12T07:34:12;2.25;;;1.25;;
53010;SDS011;42803;55.762;38.084;2023-02-12T07:36:41;1.63;;;1.33;;
53010;SDS011;42803;55.762;38.084;2023-02-12T07:39:12;9.07;;;1.60;;
53010;SDS011;42803;55.762;38.084;2023-02-12T07:41:41;3.08;;;1.75;;
53010;SDS011;42803;55.762;38.084;2023-02-12T07:44:10;1.38;;;1.20;;
53010;SDS011;42803;55.762;38.084;2023-02-12T07:46:40;1.50;;;0.80;;
53010;SDS011;42803;55.762;38.084;2023-02-12T07:49:15;2.20;;;1.40;;
53010;SDS011;42803;55.762;38.084;2023-02-12T07:51:46;5.00;;;2.15;;
53010;SDS011;42803;55.762;38.084;2023-02-12T07:54:16;2.05;;;1.10;;
53010;SDS011;42803;55.762;38.084;2023-02-12T07:56:45;1.63;;;0.80;;
53010;SDS011;42803;55.762;38.084;2023-02-12T07:59:15;1.85;;;1.38;;
53010;SDS011;42803;55.762;38.084;2023-02-12T08:01:47;2.38;;;1.83;;
53010;SDS011;42803;55.762;38.084;2023-02-12T08:04:18;1.08;;;0.93;;
53010;SDS011;42803;55.762;38.084;2023-02-12T08:06:51;3.15;;;2.13;;
53010;SDS011;42803;55.762;38.084;2023-02-12T08:09:23;2.13;;;1.30;;
53010;SDS011;42803;55.762;38.084;2023-02-12T08:11:54;4.03;;;1.92;;
53010;SDS011;42803;55.762;38.084;2023-02-12T08:14:23;2.72;;;1.52;;
53010;SDS011;42803;55.762;38.084;2023-02-12T08:16:52;1.98;;;1.30;;
53010;SDS011;42803;55.762;38.084;2023-02-12T08:19:21;3.88;;;1.35;;
53010;SDS011;42803;55.762;38.084;2023-02-12T08:21:56;3.63;;;1.80;;
53010;SDS011;42803;55.762;38.084;2023-02-12T08:24:26;2.35;;;1.52;;
53010;SDS011;42803;55.762;38.084;2023-02-12T08:26:55;3.38;;;1.25;;
53010;SDS011;42803;55.762;38.084;2023-02-12T08:29:25;2.47;;;0.90;;
53010;SDS011;42803;55.762;38.084;2023-02-12T08:31:56;2.47;;;1.38;;
53010;SDS011;42803;55.762;38.084;2023-02-12T08:34:27;2.35;;;1.48;;
53010;SDS011;42803;55.762;38.084;2023-02-12T08:37:00;1.80;;;1.42;;
53010;SDS011;42803;55.762;38.084;2023-02-12T08:39:29;4.28;;;1.85;;
53010;SDS011;42803;55.762;38.084;2023-02-12T08:41:58;2.60;;;1.33;;
53010;SDS011;42803;55.762;38.084;2023-02-12T08:44:28;2.53;;;1.10;;
53010;SDS011;42803;55.762;38.084;2023-02-12T08:46:57;0.88;;;0.88;;
53010;SDS011;42803;55.762;38.084;2023-02-12T08:49:27;0.73;;;0.73;;
53010;SDS011;42803;55.762;38.084;2023-02-12T08:51:58;0.68;;;0.68;;
53010;SDS011;42803;55.762;38.084;2023-02-12T08:54:29;3.58;;;1.13;;
53010;SDS011;42803;55.762;38.084;2023-02-12T08:57:01;1.48;;;1.38;;
53010;SDS011;42803;55.762;38.084;2023-02-12T08:59:30;1.60;;;1.00;;
53010;SDS011;42803;55.762;38.084;2023-02-12T09:02:00;1.40;;;1.27;;
53010;SDS011;42803;55.762;38.084;2023-02-12T09:04:31;1.45;;;1.20;;
53010;SDS011;42803;55.762;38.084;2023-02-12T09:07:04;1.15;;;0.98;;
53010;SDS011;42803;55.762;38.084;2023-02-12T09:09:36;1.23;;;1.13;;
53010;SDS011;42803;55.762;38.084;2023-02-12T09:12:05;3.50;;;1.10;;
53010;SDS011;42803;55.762;38.084;2023-02-12T09:14:35;1.75;;;0.82;;
53010;SDS011;42803;55.762;38.084;2023-02-12T09:17:04;0.85;;;0.70;;
53010;SDS011;42803;55.762;38.084;2023-02-12T09:19:33;0.90;;;0.73;;
53010;SDS011;42803;55.762;38.084;2023-02-12T09:22:04;3.75;;;1.15;;
53010;SDS011;42803;55.762;38.084;2023-02-12T09:24:33;1.35;;;1.08;;
53010;SDS011;42803;55.762;38.084;2023-02-12T09:27:03;1.92;;;1.02;;
53010;SDS011;42803;55.762;38.084;2023-02-12T09:29:32;3.25;;;1.52;;
53010;SDS011;42803;55.762;38.084;2023-02-12T09:32:02;1.42;;;1.20;;
53010;SDS011;42803;55.762;38.084;2023-02-12T09:34:33;2.78;;;1.00;;
53010;SDS011;42803;55.762;38.084;2023-02-12T09:37:02;1.20;;;1.00;;
53010;SDS011;42803;55.762;38.084;2023-02-12T09:39:33;2.55;;;1.08;;
53010;SDS011;42803;55.762;38.084;2023-02-12T09:42:06;1.58;;;1.02;;
53010;SDS011;42803;55.762;38.084;2023-02-12T09:44:45;1.52;;;1.23;;
53010;SDS011;42803;55.762;38.084;2023-02-12T09:47:22;1.55;;;1.08;;
53010;SDS011;42803;55.762;38.084;2023-02-12T09:50:00;4.57;;;1.75;;
53010;SDS011;42803;55.762;38.084;2023-02-12T09:52:40;0.80;;;0.80;;
53010;SDS011;42803;55.762;38.084;2023-02-12T09:55:11;1.52;;;0.80;;
53010;SDS011;42803;55.762;38.084;2023-02-12T09:57:43;0.75;;;0.75;;
53010;SDS011;42803;55.762;38.084;2023-02-12T10:00:14;0.93;;;0.70;;
53010;SDS011;42803;55.762;38.084;2023-02-12T10:02:46;1.63;;;0.90;;
53010;SDS011;42803;55.762;38.084;2023-02-12T10:05:18;1.25;;;0.85;;
53010;SDS011;42803;55.762;38.084;2023-02-12T10:07:59;1.77;;;0.85;;
53010;SDS011;42803;55.762;38.084;2023-02-12T10:10:52;2.20;;;0.63;;
53010;SDS011;42803;55.762;38.084;2023-02-12T10:13:32;0.90;;;0.90;;
53010;SDS011;42803;55.762;38.084;2023-02-12T10:16:13;5.30;;;1.10;;
53010;SDS011;42803;55.762;38.084;2023-02-12T10:18:52;3.20;;;0.73;;
53010;SDS011;42803;55.762;38.084;2023-02-12T10:21:37;2.03;;;1.25;;
53010;SDS011;42803;55.762;38.084;2023-02-12T10:24:25;1.17;;;1.08;;
53010;SDS011;42803;55.762;38.084;2023-02-12T10:27:10;3.33;;;0.85;;
53010;SDS011;42803;55.762;38.084;2023-02-12T10:29:42;3.70;;;0.80;;
53010;SDS011;42803;55.762;38.084;2023-02-12T10:32:17;0.85;;;0.75;;
53010;SDS011;42803;55.762;38.084;2023-02-12T10:34:52;1.00;;;0.80;;
53010;SDS011;42803;55.762;38.084;2023-02-12T10:37:26;0.55;;;0.55;;
53010;SDS011;42803;55.762;38.084;2023-02-12T10:40:00;1.02;;;0.75;;
53010;SDS011;42803;55.762;38.084;2023-02-12T10:42:37;0.60;;;0.60;;
53010;SDS011;42803;55.762;38.084;2023-02-12T10:45:11;1.30;;;1.10;;
53010;SDS011;42803;55.762;38.084;2023-02-12T10:47:43;5.70;;;1.15;;
53010;SDS011;42803;55.762;38.084;2023-02-12T10:50:16;2.03;;;0.60;;
53010;SDS011;42803;55.762;38.084;2023-02-12T10:52:53;0.93;;;0.80;;
53010;SDS011;42803;55.762;38.084;2023-02-12T10:55:27;4.78;;;0.95;;
53010;SDS011;42803;55.762;38.084;2023-02-12T10:58:00;1.35;;;0.80;;
53010;SDS011;42803;55.762;38.084;2023-02-12T11:00:30;3.95;;;0.90;;
53010;SDS011;42803;55.762;38.084;2023-02-12T11:03:08;1.30;;;0.80;;
53010;SDS011;42803;55.762;38.084;2023-02-12T11:05:49;1.40;;;0.80;;
53010;SDS011;42803;55.762;38.084;2023-02-12T11:08:29;5.05;;;0.70;;
53010;SDS011;42803;55.762;38.084;2023-02-12T11:11:08;0.40;;;0.40;;
53010;SDS011;42803;55.762;38.084;2023-02-12T11:13:41;0.70;;;0.70;;
53010;SDS011;42803;55.762;38.084;2023-02-12T11:16:20;0.65;;;0.65;;
53010;SDS011;42803;55.762;38.084;2023-02-12T11:18:59;1.55;;;0.85;;
53010;SDS011;42803;55.762;38.084;2023-02-12T11:21:31;2.08;;;0.60;;
53010;SDS011;42803;55.762;38.084;2023-02-12T11:27:10;2.33;;;0.60;;
53010;SDS011;42803;55.762;38.084;2023-02-12T11:29:43;0.60;;;0.60;;
53010;SDS011;42803;55.762;38.084;2023-02-12T11:32:15;1.40;;;0.95;;
53010;SDS011;42803;55.762;38.084;2023-02-12T11:34:46;0.80;;;0.80;;
53010;SDS011;42803;55.762;38.084;2023-02-12T11:37:33;1.15;;;0.60;;
53010;SDS011;42803;55.762;38.084;2023-02-12T11:40:12;0.77;;;0.77;;
53010;SDS011;42803;55.762;38.084;2023-02-12T11:42:46;0.73;;;0.65;;
53010;SDS011;42803;55.762;38.084;2023-02-12T11:45:20;1.20;;;1.10;;
53010;SDS011;42803;55.762;38.084;2023-02-12T11:47:53;1.15;;;1.10;;
53010;SDS011;42803;55.762;38.084;2023-02-12T11:50:24;1.73;;;0.70;;
53010;SDS011;42803;55.762;38.084;2023-02-12T11:52:56;0.80;;;0.80;;
53010;SDS011;42803;55.762;38.084;2023-02-12T11:55:28;1.02;;;0.98;;
53010;SDS011;42803;55.762;38.084;2023-02-12T11:58:01;2.50;;;0.88;;
53010;SDS011;42803;55.762;38.084;2023-02-12T12:00:35;1.50;;;0.82;;
53010;SDS011;42803;55.762;38.084;2023-02-12T12:03:09;1.42;;;1.00;;
53010;SDS011;42803;55.762;38.084;2023-02-12T12:05:43;0.63;;;0.63;;
53010;SDS011;42803;55.762;38.084;2023-02-12T12:08:17;0.80;;;0.80;;
53010;SDS011;42803;55.762;38.084;2023-02-12T12:10:52;4.10;;;1.10;;
53010;SDS011;42803;55.762;38.084;2023-02-12T12:13:28;0.60;;;0.60;;
53010;SDS011;42803;55.762;38.084;2023-02-12T12:16:05;1.52;;;1.00;;
53010;SDS011;42803;55.762;38.084;2023-02-12T12:18:57;1.30;;;0.80;;
53010;SDS011;42803;55.762;38.084;2023-02-12T12:21:51;2.80;;;1.00;;
53010;SDS011;42803;55.762;38.084;2023-02-12T12:24:28;1.13;;;0.90;;
53010;SDS011;42803;55.762;38.084;2023-02-12T12:27:08;1.73;;;0.90;;
53010;SDS011;42803;55.762;38.084;2023-02-12T12:30:15;0.70;;;0.70;;
53010;SDS011;42803;55.762;38.084;2023-02-12T12:32:51;1.38;;;1.00;;
53010;SDS011;42803;55.762;38.084;2023-02-12T12:35:25;2.38;;;0.88;;
53010;SDS011;42803;55.762;38.084;2023-02-12T12:38:15;1.65;;;1.00;;
53010;SDS011;42803;55.762;38.084;2023-02-12T12:40:55;1.00;;;0.90;;
53010;SDS011;42803;55.762;38.084;2023-02-12T12:43:34;1.15;;;0.90;;
53010;SDS011;42803;55.762;38.084;2023-02-12T12:49:24;5.57;;;0.95;;
53010;SDS011;42803;55.762;38.084;2023-02-12T12:52:18;1.13;;;0.73;;
53010;SDS011;42803;55.762;38.084;2023-02-12T12:55:18;1.05;;;0.70;;
53010;SDS011;42803;55.762;38.084;2023-02-12T12:58:11;0.70;;;0.70;;
53010;SDS011;42803;55.762;38.084;2023-02-12T13:00:53;1.30;;;1.00;;
53010;SDS011;42803;55.762;38.084;2023-02-12T13:03:51;1.05;;;0.80;;
53010;SDS011;42803;55.762;38.084;2023-02-12T13:06:50;0.90;;;0.77;;
53010;SDS011;42803;55.762;38.084;2023-02-12T13:09:39;1.75;;;0.90;;
53010;SDS011;42803;55.762;38.084;2023-02-12T13:12:32;2.78;;;1.02;;
53010;SDS011;42803;55.762;38.084;2023-02-12T13:15:16;0.98;;;0.70;;
53010;SDS011;42803;55.762;38.084;2023-02-12T13:17:54;1.63;;;0.70;;
53010;SDS011;42803;55.762;38.084;2023-02-12T13:20:30;4.47;;;1.17;;
53010;SDS011;42803;55.762;38.084;2023-02-12T13:23:12;0.85;;;0.82;;
53010;SDS011;42803;55.762;38.084;2023-02-12T13:25:46;2.70;;;1.10;;
53010;SDS011;42803;55.762;38.084;2023-02-12T13:28:23;0.75;;;0.75;;
53010;SDS011;42803;55.762;38.084;2023-02-12T13:30:59;0.80;;;0.80;;
53010;SDS011;42803;55.762;38.084;2023-02-12T13:33:51;0.82;;;0.75;;
53010;SDS011;42803;55.762;38.084;2023-02-12T13:36:23;1.17;;;1.08;;
53010;SDS011;42803;55.762;38.084;2023-02-12T13:38:54;1.27;;;0.90;;
53010;SDS011;42803;55.762;38.084;2023-02-12T13:44:02;3.28;;;1.40;;
53010;SDS011;42803;55.762;38.084;2023-02-12T13:46:38;2.15;;;0.88;;
53010;SDS011;42803;55.762;38.084;2023-02-12T13:49:20;0.88;;;0.88;;
53010;SDS011;42803;55.762;38.084;2023-02-12T13:51:58;1.08;;;0.63;;
53010;SDS011;42803;55.762;38.084;2023-02-12T13:54:43;1.10;;;0.77;;
53010;SDS011;42803;55.762;38.084;2023-02-12T13:57:17;1.75;;;0.60;;
53010;SDS011;42803;55.762;38.084;2023-02-12T13:59:48;1.05;;;0.63;;
53010;SDS011;42803;55.762;38.084;2023-02-12T14:02:27;0.40;;;0.40;;
53010;SDS011;42803;55.762;38.084;2023-02-12T14:05:18;2.60;;;1.00;;
53010;SDS011;42803;55.762;38.084;2023-02-12T14:07:53;1.05;;;0.90;;
53010;SDS011;42803;55.762;38.084;2023-02-12T14:10:27;0.73;;;0.70;;
53010;SDS011;42803;55.762;38.084;2023-02-12T14:13:09;2.25;;;0.73;;
53010;SDS011;42803;55.762;38.084;2023-02-12T14:15:42;1.10;;;0.70;;
53010;SDS011;42803;55.762;38.084;2023-02-12T14:18:22;0.70;;;0.70;;
53010;SDS011;42803;55.762;38.084;2023-02-12T14:27:17;1.45;;;0.68;;
53010;SDS011;42803;55.762;38.084;2023-02-12T14:29:59;0.70;;;0.70;;
53010;SDS011;42803;55.762;38.084;2023-02-12T14:35:48;0.75;;;0.68;;
53010;SDS011;42803;55.762;38.084;2023-02-12T14:41:31;0.75;;;0.60;;
53010;SDS011;42803;55.762;38.084;2023-02-12T14:50:16;0.93;;;0.88;;
53010;SDS011;42803;55.762;38.084;2023-02-12T14:52:53;1.50;;;0.90;;
53010;SDS011;42803;55.762;38.084;2023-02-12T14:55:28;0.60;;;0.60;;
53010;SDS011;42803;55.762;38.084;2023-02-12T14:58:02;1.20;;;0.73;;
53010;SDS011;42803;55.762;38.084;2023-02-12T15:00:36;0.60;;;0.60;;
53010;SDS011;42803;55.762;38.084;2023-02-12T15:03:17;1.55;;;1.13;;
53010;SDS011;42803;55.762;38.084;2023-02-12T15:05:54;0.60;;;0.60;;
53010;SDS011;42803;55.762;38.084;2023-02-12T15:08:28;1.25;;;1.15;;
53010;SDS011;42803;55.762;38.084;2023-02-12T15:11:06;1.00;;;1.00;;
53010;SDS011;42803;55.762;38.084;2023-02-12T15:13:43;0.75;;;0.70;;
53010;SDS011;42803;55.762;38.084;2023-02-12T15:16:19;0.77;;;0.75;;
53010;SDS011;42803;55.762;38.084;2023-02-12T15:18:53;1.05;;;0.93;;
53010;SDS011;42803;55.762;38.084;2023-02-12T15:21:27;1.13;;;0.80;;
53010;SDS011;42803;55.762;38.084;2023-02-12T15:24:05;0.80;;;0.80;;
53010;SDS011;42803;55.762;38.084;2023-02-12T15:26:35;0.60;;;0.60;;
53010;SDS011;42803;55.762;38.084;2023-02-12T15:29:15;0.70;;;0.70;;
53010;SDS011;42803;55.762;38.084;2023-02-12T15:31:50;0.70;;;0.70;;
53010;SDS011;42803;55.762;38.084;2023-02-12T15:34:22;1.10;;;1.00;;
53010;SDS011;42803;55.762;38.084;2023-02-12T15:36:56;0.68;;;0.65;;
53010;SDS011;42803;55.762;38.084;2023-02-12T15:39:26;0.82;;;0.75;;
53010;SDS011;42803;55.762;38.084;2023-02-12T15:45:02;1.48;;;1.38;;
53010;SDS011;42803;55.762;38.084;2023-02-12T15:47:53;2.40;;;1.30;;
53010;SDS011;42803;55.762;38.084;2023-02-12T15:50:25;3.72;;;0.93;;
53010;SDS011;42803;55.762;38.084;2023-02-12T15:52:54;1.45;;;1.30;;